Time;durP1;ratioP1;P1;durP2;ratioP2;P2;SDS_P1;SDS_P2;PMS_P1;PMS_P2;Temp;Humidity;BMP_temperature;BMP_pressure;BME280_temperature;BME280_humidity;BME280_pressure;Samples;Min_cycle;Max_cycle;Signal;HPM_P1;HPM_P2
2022/08/29 00:00:11;;;;;;;6.90;6.17;;;;;;;17.22;82.20;98820.50;4982934;28;20244;-51
2022/08/29 00:02:38;;;;;;;8.97;6.83;;;;;;;17.30;82.28;98809.81;4980152;28;20256;-52
2022/08/29 00:05:06;;;;;;;8.10;6.13;;;;;;;17.25;82.47;98806.94;4984096;28;20235;-52
2022/08/29 00:07:35;;;;;;;8.17;6.50;;;;;;;17.24;82.70;98816.66;4981012;28;20232;-51
2022/08/29 00:10:02;;;;;;;7.33;5.97;;;;;;;17.24;82.04;98813.22;4983945;28;20261;-54
2022/08/29 00:12:29;;;;;;;6.50;5.80;;;;;;;17.38;81.64;98808.84;4978670;28;21742;-51
2022/08/29 00:14:56;;;;;;;9.57;6.10;;;;;;;17.32;81.22;98814.88;4982669;28;20241;-53
2022/08/29 00:17:22;;;;;;;8.77;6.30;;;;;;;17.32;81.41;98812.25;4980370;28;20236;-53
2022/08/29 00:19:49;;;;;;;10.13;5.83;;;;;;;17.30;79.91;98811.63;4982590;28;20241;-52
2022/08/29 00:22:16;;;;;;;9.73;5.50;;;;;;;17.30;78.83;98809.81;4979644;28;20250;-51
2022/08/29 00:24:44;;;;;;;6.77;5.33;;;;;;;17.30;78.70;98803.72;4983076;28;20249;-53
2022/08/29 00:27:11;;;;;;;6.47;5.00;;;;;;;17.23;78.63;98804.47;4978839;28;20229;-51
2022/08/29 00:29:38;;;;;;;8.90;5.37;;;;;;;17.33;77.31;98801.53;4981118;28;20232;-51
2022/08/29 00:32:05;;;;;;;6.43;4.83;;;;;;;17.27;77.40;98799.66;4983880;28;20251;-51
2022/08/29 00:34:32;;;;;;;7.30;5.13;;;;;;;17.23;77.52;98801.81;4980259;28;20241;-52
2022/08/29 00:36:59;;;;;;;8.53;4.83;;;;;;;17.14;77.58;98810.06;4982629;28;20327;-54
2022/08/29 00:39:25;;;;;;;6.70;5.00;;;;;;;17.06;77.85;98806.56;4976770;28;20233;-51
2022/08/29 00:41:54;;;;;;;6.13;4.70;;;;;;;17.03;78.05;98806.94;4980872;28;20246;-53
2022/08/29 00:44:20;;;;;;;7.43;4.80;;;;;;;16.99;77.91;98805.69;4977818;28;20251;-51
2022/08/29 00:46:54;;;;;;;8.07;4.83;;;;;;;16.99;77.25;98810.94;4983094;28;20233;-52
2022/08/29 00:49:33;;;;;;;7.57;4.60;;;;;;;16.98;77.20;98806.69;4980695;28;20321;-52
2022/08/29 00:52:06;;;;;;;4.77;4.20;;;;;;;17.00;77.09;98809.94;4982798;28;20388;-53
2022/08/29 00:54:33;;;;;;;5.43;4.20;;;;;;;16.94;76.92;98805.38;4979988;28;20237;-52
2022/08/29 00:57:02;;;;;;;5.53;4.60;;;;;;;16.92;76.60;98810.88;4980618;28;20249;-54
2022/08/29 00:59:32;;;;;;;5.83;4.43;;;;;;;16.89;76.35;98807.78;4978474;28;20251;-51
2022/08/29 01:02:00;;;;;;;7.63;4.53;;;;;;;16.85;76.25;98807.34;4981857;28;20263;-51
2022/08/29 01:04:27;;;;;;;5.97;4.63;;;;;;;16.81;76.89;98803.44;4979192;28;20687;-50
2022/08/29 01:06:54;;;;;;;7.97;5.00;;;;;;;16.80;76.22;98807.88;4980598;28;20338;-52
2022/08/29 01:09:21;;;;;;;7.43;4.87;;;;;;;16.76;76.14;98806.63;4979240;28;20239;-51
2022/08/29 01:14:35;;;;;;;10.00;4.73;;;;;;;16.70;75.79;98804.72;4980436;28;20323;-52
2022/08/29 01:17:04;;;;;;;7.60;4.43;;;;;;;16.68;75.43;98809.38;4982530;28;20231;-54
2022/08/29 01:19:45;;;;;;;6.00;4.00;;;;;;;16.70;75.64;98809.19;4977655;28;20283;-53
2022/08/29 01:22:23;;;;;;;7.57;4.40;;;;;;;16.73;74.89;98814.09;4979241;28;20221;-50
2022/08/29 01:24:53;;;;;;;5.47;4.10;;;;;;;16.74;74.69;98810.47;4981805;28;20247;-53
2022/08/29 01:27:22;;;;;;;7.53;4.33;;;;;;;16.76;73.84;98811.91;4978222;28;20222;-53
2022/08/29 01:29:49;;;;;;;6.93;4.53;;;;;;;16.74;74.31;98810.47;4980383;28;20713;-52
2022/08/29 01:32:16;;;;;;;6.40;4.20;;;;;;;16.75;73.61;98804.19;4977157;28;20310;-52
2022/08/29 01:34:44;;;;;;;8.50;4.33;;;;;;;16.70;74.14;98812.63;4980701;28;20236;-51
2022/08/29 01:37:14;;;;;;;5.57;4.23;;;;;;;16.67;74.63;98821.75;4979265;28;20301;-52
2022/08/29 01:39:43;;;;;;;7.07;4.40;;;;;;;16.66;75.29;98808.75;4979764;28;20240;-55
2022/08/29 01:42:13;;;;;;;6.50;4.60;;;;;;;16.59;74.96;98811.31;4977619;28;20738;-55
2022/08/29 01:44:41;;;;;;;8.77;4.57;;;;;;;16.52;75.28;98811.22;4980965;28;20233;-55
2022/08/29 01:47:10;;;;;;;7.50;4.57;;;;;;;16.59;75.81;98819.22;4978217;28;20238;-53
2022/08/29 01:49:37;;;;;;;6.50;4.97;;;;;;;16.48;77.78;98822.31;4978742;28;20237;-52
2022/08/29 01:52:05;;;;;;;6.60;4.20;;;;;;;16.40;77.48;98831.16;4982544;28;20757;-54
2022/08/29 01:54:33;;;;;;;9.23;4.73;;;;;;;16.34;76.95;98824.78;4978452;28;20235;-54
2022/08/29 01:57:00;;;;;;;8.07;4.10;;;;;;;16.34;76.35;98818.72;4981795;28;20235;-56
2022/08/29 01:59:30;;;;;;;6.30;4.27;;;;;;;16.30;76.32;98820.09;4978228;28;20713;-55
2022/08/29 02:02:00;;;;;;;9.10;5.00;;;;;;;16.28;77.44;98820.25;4981731;28;20259;-54
2022/08/29 02:04:27;;;;;;;7.80;4.90;;;;;;;16.20;77.94;98809.81;4978305;28;20319;-52
2022/08/29 02:06:55;;;;;;;6.07;4.47;;;;;;;16.20;77.80;98815.09;4982399;28;20322;-52
2022/08/29 02:09:22;;;;;;;5.67;4.33;;;;;;;16.23;78.11;98807.66;4977437;28;20239;-52
2022/08/29 02:11:48;;;;;;;6.40;4.67;;;;;;;16.19;77.48;98813.44;4980046;28;20236;-52
2022/08/29 02:14:16;;;;;;;6.97;4.40;;;;;;;16.19;77.98;98813.44;4978408;28;20212;-53
2022/08/29 02:16:44;;;;;;;7.27;4.30;;;;;;;16.18;77.41;98817.09;4981337;28;20251;-51
2022/08/29 02:19:10;;;;;;;6.60;4.77;;;;;;;16.28;78.99;98819.47;4981159;28;20230;-51
2022/08/29 02:21:37;;;;;;;6.17;4.17;;;;;;;16.23;78.59;98822.63;4981989;28;20315;-51
2022/08/29 02:24:05;;;;;;;7.17;4.80;;;;;;;16.17;77.90;98823.34;4982414;28;20318;-54
2022/08/29 02:26:33;;;;;;;8.70;5.30;;;;;;;16.13;78.02;98822.91;4979037;28;20756;-52
2022/08/29 02:29:18;;;;;;;8.13;5.03;;;;;;;16.19;78.42;98826.63;4976606;28;20747;-53
2022/08/29 02:31:46;;;;;;;8.63;4.73;;;;;;;16.18;78.11;98827.63;4980693;28;20264;-52
2022/08/29 02:34:13;;;;;;;5.83;4.80;;;;;;;16.13;78.00;98824.72;4976942;28;20219;-52
2022/08/29 02:36:40;;;;;;;6.83;5.00;;;;;;;16.09;78.77;98819.00;4981370;28;20679;-50
2022/08/29 02:39:07;;;;;;;9.47;5.27;;;;;;;16.06;79.19;98827.28;4982123;28;20339;-52
2022/08/29 02:41:34;;;;;;;10.90;4.97;;;;;;;16.00;79.54;98823.53;4978366;28;20235;-51
2022/08/29 02:44:01;;;;;;;6.37;4.70;;;;;;;15.99;80.12;98824.53;4981761;28;20228;-52
2022/08/29 02:46:28;;;;;;;7.60;5.13;;;;;;;15.97;80.43;98821.25;4975184;28;20664;-53
2022/08/29 02:48:57;;;;;;;9.37;5.60;;;;;;;15.91;81.03;98835.97;4980591;28;20314;-53
2022/08/29 02:51:26;;;;;;;8.33;5.03;;;;;;;15.89;81.13;98824.81;4977796;28;20239;-53
2022/08/29 02:53:53;;;;;;;7.60;4.90;;;;;;;15.90;82.09;98823.81;4980848;28;20241;-50
2022/08/29 02:56:20;;;;;;;7.10;5.10;;;;;;;15.87;82.78;98829.44;4979613;28;20238;-51
2022/08/29 02:58:48;;;;;;;6.17;4.90;;;;;;;15.81;82.77;98831.94;4980070;28;20232;-52
2022/08/29 03:01:16;;;;;;;8.80;5.43;;;;;;;15.76;83.22;98830.66;4976794;28;20810;-53
2022/08/29 03:03:42;;;;;;;6.80;4.90;;;;;;;15.68;83.21;98830.75;4981672;28;20242;-51
2022/08/29 03:06:11;;;;;;;10.07;5.27;;;;;;;15.62;84.26;98818.31;4982423;28;20756;-52
2022/08/29 03:08:39;;;;;;;8.83;5.53;;;;;;;15.58;84.67;98827.56;4978242;28;20713;-50
2022/08/29 03:11:06;;;;;;;10.70;5.53;;;;;;;15.62;85.05;98820.94;4980102;28;20246;-54
2022/08/29 03:13:33;;;;;;;9.70;5.30;;;;;;;15.54;84.07;98821.00;4972378;28;20241;-54
2022/08/29 03:16:01;;;;;;;7.23;5.57;;;;;;;15.53;84.35;98820.19;4964699;28;20598;-53
2022/08/29 03:18:47;;;;;;;10.67;5.73;;;;;;;15.51;85.20;98819.53;4979801;28;20564;-53
2022/08/29 03:21:18;;;;;;;7.47;5.10;;;;;;;15.44;85.07;98819.44;4979340;28;20242;-51
2022/08/29 03:23:45;;;;;;;8.10;5.30;;;;;;;15.38;85.82;98816.69;4981591;28;20244;-52
2022/08/29 03:26:12;;;;;;;7.13;5.20;;;;;;;15.41;86.53;98811.91;4981422;28;20221;-51
2022/08/29 03:28:57;;;;;;;11.67;5.83;;;;;;;15.33;86.68;98807.53;4984040;28;20248;-51
2022/08/29 03:31:24;;;;;;;11.47;6.10;;;;;;;15.32;87.69;98811.16;4982821;28;20692;-52
2022/08/29 03:33:51;;;;;;;7.97;5.93;;;;;;;15.31;87.61;98808.69;4983348;28;20246;-53
2022/08/29 03:36:19;;;;;;;7.27;5.33;;;;;;;15.25;88.32;98807.59;4980076;28;20225;-51
2022/08/29 03:38:47;;;;;;;8.13;5.57;;;;;;;15.22;88.58;98804.50;4985197;28;20271;-52
2022/08/29 03:41:20;;;;;;;10.43;6.60;;;;;;;15.26;89.87;98809.25;4981669;28;20729;-51
2022/08/29 03:43:47;;;;;;;9.23;6.47;;;;;;;15.19;90.17;98808.31;4985116;28;20323;-51
2022/08/29 03:46:14;;;;;;;8.93;6.40;;;;;;;15.20;90.68;98799.44;4980414;28;20695;-54
2022/08/29 03:48:41;;;;;;;9.40;6.50;;;;;;;15.25;91.06;98796.25;4983050;28;20256;-51
2022/08/29 03:51:08;;;;;;;10.37;6.63;;;;;;;15.15;91.63;98793.88;4983306;28;20235;-51
2022/08/29 03:53:37;;;;;;;8.80;6.20;;;;;;;15.13;92.05;98798.50;4983263;28;20242;-51
2022/08/29 03:56:05;;;;;;;14.37;7.23;;;;;;;15.14;93.12;98794.88;4982740;28;20287;-54
2022/08/29 03:58:31;;;;;;;8.80;6.90;;;;;;;15.12;93.40;98800.28;4979552;28;20242;-50
2022/08/29 04:00:58;;;;;;;9.57;7.27;;;;;;;15.22;93.93;98800.06;4982900;28;20260;-51
2022/08/29 04:03:25;;;;;;;13.57;7.17;;;;;;;15.25;94.03;98796.25;4980579;28;20258;-55
2022/08/29 04:05:52;;;;;;;9.27;7.50;;;;;;;15.21;94.17;98803.69;4983015;28;20242;-54
2022/08/29 04:08:19;;;;;;;8.17;6.97;;;;;;;15.18;94.39;98801.41;4982503;28;20229;-55
2022/08/29 04:10:47;;;;;;;8.17;6.53;;;;;;;15.19;94.42;98798.59;4984599;28;20315;-51
2022/08/29 04:13:14;;;;;;;11.10;6.87;;;;;;;15.20;93.87;98797.59;4980869;28;20213;-54
2022/08/29 04:15:42;;;;;;;8.77;7.63;;;;;;;15.17;94.44;98797.94;4983071;28;20727;-51
2022/08/29 04:18:11;;;;;;;10.80;7.27;;;;;;;15.16;94.72;98803.41;4983387;28;20235;-55
2022/08/29 04:20:43;;;;;;;7.27;6.37;;;;;;;15.09;94.16;98803.28;4981305;28;20323;-55
2022/08/29 04:23:12;;;;;;;9.43;6.40;;;;;;;15.09;94.29;98798.00;4979360;28;20217;-52
2022/08/29 04:25:40;;;;;;;12.00;6.50;;;;;;;15.12;93.43;98794.22;4973336;28;20239;-52
2022/08/29 04:28:10;;;;;;;10.27;7.40;;;;;;;15.07;94.53;98807.09;4982536;28;21036;-55
2022/08/29 04:30:38;;;;;;;11.90;7.90;;;;;;;15.02;95.34;98795.28;4974461;28;20225;-55
2022/08/29 04:33:05;;;;;;;8.20;7.10;;;;;;;15.00;95.27;98806.94;4983410;28;20236;-54
2022/08/29 04:35:34;;;;;;;9.07;7.37;;;;;;;14.93;95.09;98808.63;4979371;28;20235;-52
2022/08/29 04:38:00;;;;;;;8.27;7.37;;;;;;;14.86;95.53;98806.72;4984817;28;20330;-54
2022/08/29 04:40:27;;;;;;;13.83;7.67;;;;;;;14.88;95.87;98809.19;4979169;28;20223;-51
2022/08/29 04:42:54;;;;;;;9.30;7.20;;;;;;;14.80;96.81;98810.06;4982568;28;20235;-50
2022/08/29 04:45:22;;;;;;;9.03;7.20;;;;;;;14.79;96.67;98815.47;4981381;28;20867;-49
2022/08/29 04:47:49;;;;;;;10.13;7.30;;;;;;;14.84;95.86;98821.81;4979967;28;20450;-50
2022/08/29 04:50:18;;;;;;;10.47;7.80;;;;;;;14.85;95.84;98818.22;4981256;28;20583;-50
2022/08/29 04:52:46;;;;;;;10.07;7.10;;;;;;;14.85;95.23;98822.66;4982147;28;20291;-51
2022/08/29 04:55:13;;;;;;;17.53;8.00;;;;;;;14.84;95.60;98826.28;4980755;28;20251;-52
2022/08/29 04:57:59;;;;;;;11.60;7.63;;;;;;;14.81;95.21;98826.63;4984198;28;20807;-50
2022/08/29 05:00:29;;;;;;;9.17;7.23;;;;;;;14.78;95.02;98834.84;4979117;28;20697;-51
2022/08/29 05:02:55;;;;;;;12.00;7.13;;;;;;;14.81;94.66;98829.25;4982784;28;20806;-52
2022/08/29 05:05:23;;;;;;;11.40;7.73;;;;;;;14.78;94.89;98834.84;4978646;28;20930;-50
2022/08/29 05:07:49;;;;;;;15.73;7.50;;;;;;;14.83;94.70;98843.88;4983504;28;20240;-50
2022/08/29 05:10:19;;;;;;;10.33;7.47;;;;;;;14.83;94.81;98840.41;4979407;28;20585;-50
2022/08/29 05:12:46;;;;;;;12.67;7.17;;;;;;;14.85;94.89;98847.13;4981881;28;20253;-50
2022/08/29 05:15:14;;;;;;;10.10;7.73;;;;;;;14.88;94.69;98852.03;4980614;28;20239;-51
2022/08/29 05:17:42;;;;;;;10.17;7.37;;;;;;;14.93;94.64;98855.94;4982831;28;20223;-51
2022/08/29 05:20:11;;;;;;;10.07;7.80;;;;;;;14.98;94.12;98851.00;4980726;28;20227;-51
2022/08/29 05:22:38;;;;;;;14.40;7.27;;;;;;;15.03;94.29;98864.44;4979609;28;20239;-50
2022/08/29 05:25:06;;;;;;;12.23;7.43;;;;;;;15.06;93.79;98864.09;4981031;28;20262;-50
2022/08/29 05:27:33;;;;;;;10.23;6.60;;;;;;;15.12;93.61;98865.22;4979339;28;20245;-52
2022/08/29 05:30:02;;;;;;;14.03;7.40;;;;;;;15.18;93.60;98867.94;4981876;28;20247;-52
2022/08/29 05:32:29;;;;;;;11.10;8.10;;;;;;;15.28;92.64;98869.53;4979716;28;20237;-53
2022/08/29 05:34:57;;;;;;;10.50;7.93;;;;;;;15.33;93.26;98875.09;4981998;28;20712;-50
2022/08/29 05:37:24;;;;;;;8.33;6.90;;;;;;;15.34;92.48;98866.22;4979343;28;20318;-52
2022/08/29 05:39:51;;;;;;;10.73;7.40;;;;;;;15.37;92.52;98871.13;4981283;28;20235;-53
2022/08/29 05:42:20;;;;;;;10.80;7.47;;;;;;;15.42;92.75;98863.50;4973443;28;20235;-51
2022/08/29 05:44:48;;;;;;;11.60;7.30;;;;;;;15.43;92.74;98872.22;4981891;28;20243;-53
2022/08/29 05:47:16;;;;;;;8.90;6.57;;;;;;;15.42;92.58;98866.16;4977295;28;20223;-54
2022/08/29 05:49:45;;;;;;;13.63;7.63;;;;;;;15.43;92.32;98873.03;4980442;28;20248;-51
2022/08/29 05:52:14;;;;;;;12.20;7.93;;;;;;;15.45;92.30;98871.06;4978207;28;20220;-54
2022/08/29 05:54:42;;;;;;;13.63;8.50;;;;;;;15.45;92.58;98873.69;4982164;28;20239;-51
2022/08/29 05:57:11;;;;;;;11.73;7.50;;;;;;;15.50;92.58;98863.47;4980051;28;20613;-53
2022/08/29 05:59:38;;;;;;;8.27;6.83;;;;;;;15.50;92.42;98876.59;4981074;28;20604;-53
2022/08/29 06:02:08;;;;;;;9.77;7.93;;;;;;;15.53;92.21;98867.53;4980411;28;20254;-51
2022/08/29 06:04:34;;;;;;;12.17;7.00;;;;;;;15.54;92.34;98892.03;4976744;28;20228;-50
2022/08/29 06:07:01;;;;;;;10.53;7.43;;;;;;;15.55;92.73;98873.44;4981799;28;20371;-52
2022/08/29 06:09:29;;;;;;;11.47;7.30;;;;;;;15.59;92.13;98871.28;4977850;28;20250;-51
2022/08/29 06:11:57;;;;;;;10.27;6.93;;;;;;;15.57;92.70;98878.53;4981346;28;20248;-50
2022/08/29 06:14:24;;;;;;;12.67;7.37;;;;;;;15.55;92.91;98876.06;4980619;28;20230;-51
2022/08/29 06:16:51;;;;;;;10.27;7.30;;;;;;;15.59;92.91;98877.34;4981012;28;20366;-52
2022/08/29 06:19:18;;;;;;;8.80;6.80;;;;;;;15.68;92.21;98885.19;4977659;28;20256;-52
2022/08/29 06:21:46;;;;;;;10.00;7.07;;;;;;;15.72;92.17;98892.56;4980183;28;20243;-53
2022/08/29 06:24:13;;;;;;;11.67;7.10;;;;;;;15.74;92.70;98887.94;4978936;28;20319;-54
2022/08/29 06:26:43;;;;;;;8.77;6.80;;;;;;;15.83;91.97;98895.75;4981981;28;20224;-51
2022/08/29 06:29:10;;;;;;;10.17;7.93;;;;;;;15.90;91.77;98899.34;4973908;28;20871;-51
2022/08/29 06:31:37;;;;;;;12.83;6.90;;;;;;;15.94;91.65;98904.06;4979995;28;20232;-51
2022/08/29 06:34:05;;;;;;;10.93;7.83;;;;;;;16.02;92.24;98912.88;4981938;28;20239;-52
2022/08/29 06:36:34;;;;;;;9.37;7.43;;;;;;;16.08;91.17;98910.34;4976678;28;20250;-51
2022/08/29 06:39:04;;;;;;;12.27;8.17;;;;;;;16.15;91.12;98914.88;4981648;28;20264;-51
2022/08/29 06:41:30;;;;;;;10.47;8.27;;;;;;;16.23;90.11;98917.44;4976916;28;20244;-53
2022/08/29 06:44:01;;;;;;;11.47;9.00;;;;;;;16.24;89.48;98921.72;4982019;28;20242;-51
2022/08/29 06:46:29;;;;;;;13.17;9.10;;;;;;;16.27;89.15;98931.88;4978945;28;20247;-51
2022/08/29 06:49:17;;;;;;;11.93;8.60;;;;;;;16.38;88.20;98934.06;4977563;28;20249;-55
2022/08/29 06:51:48;;;;;;;10.93;8.67;;;;;;;16.53;87.76;98939.34;4979485;28;20282;-54
2022/08/29 06:54:16;;;;;;;14.40;8.27;;;;;;;16.66;87.39;98937.88;4976605;28;20795;-54
2022/08/29 06:56:43;;;;;;;13.77;9.27;;;;;;;16.79;87.00;98934.63;4980107;28;20239;-54
2022/08/29 06:59:12;;;;;;;12.93;8.57;;;;;;;16.91;85.21;98946.34;4982086;28;20238;-54
2022/08/29 07:01:40;;;;;;;14.07;8.67;;;;;;;16.97;84.81;98950.06;4983945;28;20243;-51
2022/08/29 07:04:08;;;;;;;11.57;8.20;;;;;;;17.03;84.71;98953.78;4982426;28;20270;-54
2022/08/29 07:06:53;;;;;;;14.13;8.33;;;;;;;17.15;83.58;98951.50;4980050;28;20286;-52
2022/08/29 07:09:20;;;;;;;11.00;8.50;;;;;;;17.16;83.41;98953.13;4979842;28;20227;-51
2022/08/29 07:11:47;;;;;;;15.67;9.27;;;;;;;17.20;82.80;98951.75;4983877;28;20597;-51
2022/08/29 07:14:15;;;;;;;13.50;8.70;;;;;;;17.26;82.06;98948.38;4982909;28;20225;-51
2022/08/29 07:16:42;;;;;;;13.00;8.57;;;;;;;17.39;81.17;98955.59;4982518;28;20316;-54
2022/08/29 07:19:10;;;;;;;10.90;8.27;;;;;;;17.48;80.92;98953.69;4982241;28;20224;-50
2022/08/29 07:21:38;;;;;;;16.03;7.20;;;;;;;17.69;80.77;98950.22;4984677;28;20240;-51
2022/08/29 07:24:06;;;;;;;13.13;8.07;;;;;;;17.84;78.62;98956.25;4983290;28;20319;-51
2022/08/29 07:26:37;;;;;;;10.20;7.80;;;;;;;17.97;78.14;98960.00;4983473;28;20567;-53
2022/08/29 07:29:07;;;;;;;10.70;7.40;;;;;;;18.10;78.15;98970.69;4983807;28;20652;-53
2022/08/29 07:31:37;;;;;;;11.10;7.83;;;;;;;18.25;77.86;98960.03;4979589;28;20316;-51
2022/08/29 07:34:04;;;;;;;8.87;7.37;;;;;;;18.38;75.96;98967.25;4984030;28;20236;-52
2022/08/29 07:36:32;;;;;;;11.30;7.30;;;;;;;18.58;75.29;98959.41;4980986;28;20324;-51
2022/08/29 07:38:59;;;;;;;10.57;6.83;;;;;;;18.69;73.87;98963.34;4985916;28;20793;-51
2022/08/29 07:41:45;;;;;;;9.23;6.80;;;;;;;18.79;74.35;98960.34;4982424;28;20520;-51
2022/08/29 07:44:13;;;;;;;10.63;6.77;;;;;;;18.91;73.31;98957.13;4980668;28;20260;-51
2022/08/29 07:46:41;;;;;;;9.70;7.00;;;;;;;19.02;73.21;98949.50;4984034;28;20256;-51
2022/08/29 07:49:08;;;;;;;8.10;6.47;;;;;;;19.23;72.74;98942.41;4984108;28;20246;-52
2022/08/29 07:51:36;;;;;;;9.53;6.47;;;;;;;19.38;71.77;98949.38;4969534;28;20242;-54
2022/08/29 07:54:03;;;;;;;9.63;7.47;;;;;;;19.33;70.38;98940.22;4983294;28;20239;-52
2022/08/29 07:56:32;;;;;;;10.50;6.40;;;;;;;19.50;70.96;98945.13;4980665;28;20229;-52
2022/08/29 07:59:00;;;;;;;11.40;6.27;;;;;;;19.70;70.17;98947.78;4982674;28;20229;-53
2022/08/29 08:01:27;;;;;;;11.37;6.70;;;;;;;19.86;69.34;98943.13;4978875;28;20736;-51
2022/08/29 08:03:55;;;;;;;9.37;6.37;;;;;;;19.98;67.51;98943.38;4984197;28;20257;-51
2022/08/29 08:06:24;;;;;;;7.87;6.00;;;;;;;20.20;67.02;98952.72;4982251;28;20226;-54
2022/08/29 08:08:52;;;;;;;10.13;6.27;;;;;;;20.43;65.64;98948.00;4982766;28;20231;-51
2022/08/29 08:11:20;;;;;;;8.97;5.87;;;;;;;20.44;65.76;98952.28;4979838;28;20234;-54
2022/08/29 08:13:47;;;;;;;7.60;5.43;;;;;;;20.42;65.57;98955.13;4983839;28;20358;-51
2022/08/29 08:16:17;;;;;;;10.43;5.50;;;;;;;20.42;64.73;98955.13;4979126;28;20770;-52
2022/08/29 08:18:44;;;;;;;12.97;5.57;;;;;;;20.54;64.44;98957.97;4983001;28;20227;-55
2022/08/29 08:21:13;;;;;;;9.50;5.43;;;;;;;20.64;64.26;98968.13;4980358;28;20227;-51
2022/08/29 08:23:58;;;;;;;7.33;4.87;;;;;;;20.84;63.70;98975.25;4981434;28;20351;-52
2022/08/29 08:26:25;;;;;;;8.90;5.73;;;;;;;20.97;62.81;98980.53;4980970;28;20239;-51
2022/08/29 08:28:53;;;;;;;7.93;5.20;;;;;;;21.02;62.80;98975.41;4983372;28;20237;-54
2022/08/29 08:31:20;;;;;;;10.83;5.00;;;;;;;21.13;62.22;98983.72;4977873;28;20722;-54
2022/08/29 08:33:47;;;;;;;7.03;5.13;;;;;;;21.24;61.89;98983.03;4982554;28;20347;-54
2022/08/29 08:36:19;;;;;;;8.20;4.97;;;;;;;21.36;61.68;98976.03;4979178;28;20227;-53
2022/08/29 08:38:47;;;;;;;8.63;5.07;;;;;;;21.45;61.53;98968.66;4982966;28;20294;-54
2022/08/29 08:41:24;;;;;;;11.53;5.20;;;;;;;21.56;60.41;98980.41;4979908;28;20659;-53
2022/08/29 08:43:55;;;;;;;7.87;4.90;;;;;;;21.66;60.21;98978.13;4982692;28;20239;-54
2022/08/29 08:46:30;;;;;;;8.03;4.50;;;;;;;21.77;59.40;98986.44;4977191;28;20626;-54
2022/08/29 08:49:01;;;;;;;11.57;5.07;;;;;;;21.71;60.66;98976.69;4983265;28;20692;-53
2022/08/29 08:51:34;;;;;;;10.53;5.10;;;;;;;21.88;59.27;98984.91;4978777;28;20297;-54
2022/08/29 08:54:07;;;;;;;7.67;4.80;;;;;;;21.87;59.90;98989.44;4982396;28;20271;-54
2022/08/29 08:56:37;;;;;;;9.40;4.77;;;;;;;21.98;57.67;98985.25;4977751;28;20632;-54
2022/08/29 08:59:15;;;;;;;8.07;4.20;;;;;;;21.85;58.62;98988.84;4981581;28;20314;-53
2022/08/29 09:01:45;;;;;;;11.77;4.67;;;;;;;21.83;57.97;98985.59;4977057;28;20758;-53
2022/08/29 09:04:36;;;;;;;6.53;4.07;;;;;;;21.79;57.86;98979.06;4970571;28;20232;-52
2022/08/29 09:07:25;;;;;;;11.13;4.83;;;;;;;21.71;58.22;98974.03;4982149;28;20736;-53
2022/08/29 09:10:11;;;;;;;8.30;3.97;;;;;;;21.84;58.46;98973.94;4977818;28;20805;-54
2022/08/29 09:12:51;;;;;;;8.33;3.90;;;;;;;21.82;57.85;98979.44;4979102;28;20570;-54
2022/08/29 09:15:22;;;;;;;11.83;4.33;;;;;;;21.77;57.47;98979.28;4976782;28;20643;-57
2022/08/29 09:17:52;;;;;;;12.13;5.10;;;;;;;21.70;58.95;98978.53;4979925;28;20242;-51
2022/08/29 09:20:22;;;;;;;7.73;4.40;;;;;;;21.64;58.75;98976.72;4976890;28;20237;-55
2022/08/29 09:22:58;;;;;;;6.53;4.30;;;;;;;21.73;58.26;98977.28;4980288;28;20335;-54
2022/08/29 09:25:27;;;;;;;9.23;4.17;;;;;;;21.80;58.42;98978.03;4978505;28;20238;-51
2022/08/29 09:27:53;;;;;;;7.07;3.97;;;;;;;21.76;57.82;98982.97;4980681;28;20314;-54
2022/08/29 09:30:24;;;;;;;9.80;4.43;;;;;;;21.80;57.68;98978.03;4977059;28;20644;-54
2022/08/29 09:32:57;;;;;;;8.20;4.10;;;;;;;21.93;56.96;98977.13;4981671;28;20581;-51
2022/08/29 09:35:27;;;;;;;7.43;3.93;;;;;;;22.00;57.83;98983.19;4978688;28;20728;-52
2022/08/29 09:37:58;;;;;;;6.47;4.10;;;;;;;22.04;57.00;98980.94;4981422;28;20236;-54
2022/08/29 09:40:41;;;;;;;7.30;3.60;;;;;;;22.19;57.86;98972.63;4979283;28;20317;-52
2022/08/29 09:43:09;;;;;;;11.33;3.90;;;;;;;22.05;57.52;98980.69;4981302;28;20645;-52
2022/08/29 09:45:36;;;;;;;8.47;4.17;;;;;;;22.17;57.27;98975.50;4980132;28;20981;-51
2022/08/29 09:48:16;;;;;;;6.87;3.93;;;;;;;22.27;57.02;98981.13;4980289;28;20231;-53
2022/08/29 09:51:14;;;;;;;8.67;4.43;;;;;;;22.37;56.94;98966.50;4977197;28;20364;-54
2022/08/29 09:53:43;;;;;;;8.67;4.23;;;;;;;22.35;56.72;98974.72;4977325;28;20241;-51
2022/08/29 09:56:17;;;;;;;6.03;3.93;;;;;;;22.47;55.23;98958.88;4980145;28;20224;-52
2022/08/29 09:58:43;;;;;;;7.53;4.53;;;;;;;22.44;55.75;98964.63;4979933;28;20701;-53
2022/08/29 10:01:18;;;;;;;7.77;4.10;;;;;;;22.63;55.43;98960.16;4977455;28;20287;-53
2022/08/29 10:03:55;;;;;;;9.90;4.80;;;;;;;22.55;55.98;98953.25;4979811;28;20315;-55
2022/08/29 10:06:25;;;;;;;9.60;4.40;;;;;;;22.66;55.71;98948.22;4978052;28;20226;-54
2022/08/29 10:09:00;;;;;;;11.77;4.40;;;;;;;22.82;55.73;98954.78;4982431;28;20286;-52
2022/08/29 10:11:31;;;;;;;8.70;4.40;;;;;;;23.01;54.45;98952.94;4978513;28;20310;-54
2022/08/29 10:14:03;;;;;;;7.93;3.77;;;;;;;23.09;55.03;98952.63;4978673;28;20331;-54
2022/08/29 10:16:54;;;;;;;10.47;4.53;;;;;;;23.08;55.28;98948.34;4976803;28;20242;-54
2022/08/29 10:19:25;;;;;;;9.10;4.23;;;;;;;23.26;54.95;98941.38;4977486;28;20312;-53
2022/08/29 10:22:02;;;;;;;10.47;4.20;;;;;;;23.35;54.57;98947.19;4979512;28;20328;-52
2022/08/29 10:24:53;;;;;;;6.93;4.10;;;;;;;23.33;54.50;98946.59;4978385;28;20240;-54
2022/08/29 10:27:29;;;;;;;6.40;4.20;;;;;;;23.24;53.83;98938.13;4979096;28;20605;-54
2022/08/29 10:30:07;;;;;;;8.60;4.43;;;;;;;23.31;54.18;98940.69;4981013;28;20231;-54
2022/08/29 10:33:00;;;;;;;7.70;4.20;;;;;;;23.49;53.90;98951.28;4976411;28;20665;-54
2022/08/29 10:35:57;;;;;;;7.17;4.40;;;;;;;23.68;53.52;98943.22;4979169;28;20362;-56
2022/08/29 10:38:56;;;;;;;8.77;4.57;;;;;;;23.82;53.16;98936.66;5013854;28;20233;-55
2022/08/29 10:41:55;;;;;;;7.73;3.97;;;;;;;23.94;53.04;98936.66;5016970;28;20611;-55
2022/08/29 10:44:59;;;;;;;8.50;4.50;;;;;;;24.19;52.04;98927.63;5016971;28;20268;-56
2022/08/29 10:47:53;;;;;;;7.47;3.90;;;;;;;24.32;52.09;98921.25;5012151;28;20297;-55
2022/08/29 10:50:51;;;;;;;8.40;4.43;;;;;;;24.32;51.50;98916.72;5012390;28;20265;-54
2022/08/29 10:53:47;;;;;;;8.63;4.40;;;;;;;24.43;50.44;98916.91;5012801;28;20610;-54
2022/08/29 10:56:43;;;;;;;7.33;4.40;;;;;;;24.39;50.43;98913.09;5014795;28;20257;-56
2022/08/29 10:59:49;;;;;;;10.00;4.23;;;;;;;24.63;51.00;98919.22;5014256;28;20238;-56
2022/08/29 11:02:48;;;;;;;6.00;3.70;;;;;;;24.80;50.78;98911.28;5012393;28;20264;-55
2022/08/29 11:05:44;;;;;;;8.70;4.13;;;;;;;24.89;50.18;98907.19;5013684;28;20344;-54
2022/08/29 11:08:43;;;;;;;9.37;3.90;;;;;;;25.18;50.08;98906.38;5021133;28;20257;-53
2022/08/29 11:11:11;;;;;;;7.20;4.20;;;;;;;25.35;48.80;98917.91;5014198;28;20225;-56
2022/08/29 11:13:42;;;;;;;9.23;4.27;;;;;;;25.54;47.36;98914.22;5021518;28;20237;-55
2022/08/29 11:16:14;;;;;;;9.23;3.80;;;;;;;25.45;47.65;98911.94;5019359;28;20240;-55
2022/08/29 11:18:46;;;;;;;8.97;3.80;;;;;;;25.21;47.96;98892.53;5018882;28;20279;-54
2022/08/29 11:21:22;;;;;;;8.30;4.40;;;;;;;25.32;47.56;98899.69;5019192;28;20239;-55
2022/08/29 11:23:49;;;;;;;7.03;4.20;;;;;;;25.43;47.42;98891.84;5019878;28;20759;-56
2022/08/29 11:26:29;;;;;;;9.03;4.40;;;;;;;25.49;47.94;98880.22;5016534;28;20222;-54
2022/08/29 11:29:02;;;;;;;9.83;4.30;;;;;;;25.48;47.15;98889.28;5021217;28;20609;-54
2022/08/29 11:31:43;;;;;;;8.03;4.30;;;;;;;25.66;47.23;98880.19;5016285;28;20323;-53
2022/08/29 11:34:40;;;;;;;8.10;4.00;;;;;;;25.89;46.93;98889.91;5022374;28;20241;-56
2022/08/29 11:37:38;;;;;;;8.20;4.17;;;;;;;25.90;46.55;98880.00;5020676;28;20258;-53
2022/08/29 11:40:14;;;;;;;6.13;3.63;;;;;;;26.26;45.43;98872.50;5019364;28;20237;-54
2022/08/29 11:42:44;;;;;;;5.60;4.03;;;;;;;26.08;45.03;98877.06;5019258;28;20699;-53
2022/08/29 11:45:14;;;;;;;6.70;4.20;;;;;;;26.35;45.15;98881.72;5017297;28;20324;-53
2022/08/29 11:47:58;;;;;;;6.93;4.03;;;;;;;26.43;45.39;98868.97;5019647;28;20591;-52
2022/08/29 11:50:31;;;;;;;8.50;4.30;;;;;;;26.51;44.94;98879.22;5018350;28;20316;-53
2022/08/29 11:53:09;;;;;;;9.40;4.60;;;;;;;26.47;44.90;98870.09;5020347;28;20228;-56